Airfield :
LOGIN :

Register | Disclaimer

   EN    FR    IT 

 










Legend :    VFR   Marginal VFR   IFR   Intensive IFR   Very Intensive IFR
Visi :
Ceiling :
>= 8 km
>= 3000ft
5 to 8 km
1000 to 3000 ft
1500m to 5 km
500 to 1000 ft
800 to 1500m
200 to 500 ft
< 800m
< 200 ft
Symbols :   Thunderstorms  Fog  Heavy snow  Heavy precipitations  Wind > 20 kt
SIGMETs :     Misc.  Thunderstorms  Icing  Turbulence  Mountain Waves  Volcanic Ashes






- Airport Elevation : 1416 ft
- IATA code : ZRH


LSZH - Zurich

CURRENT METAR :
  • 250120Z AUTO 31007KT CAVOK 16/13 Q1014 NOSIG

EXPIRED METARs :
  • 250050Z AUTO 32007KT CAVOK 16/13 Q1014 NOSIG
  • 250020Z AUTO 33007KT CAVOK 16/13 Q1014 NOSIG
  • 242350Z AUTO 30004KT CAVOK 17/13 Q1014 NOSIG
  • 242320Z AUTO 31005KT CAVOK 17/13 Q1014 NOSIG
  • 242250Z AUTO 29004KT CAVOK 18/13 Q1015 NOSIG
  • 242150Z AUTO 02004KT 350V070 CAVOK 20/13 Q1015 NOSIG
  • 242120Z 03007KT 320V070 CAVOK 22/13 Q1015 NOSIG
  • 242050Z 02005KT CAVOK 21/13 Q1015 NOSIG

TAF TAF LSZH
Valid from the 25 at 00:00 until the 26 at 06:00 UTC


242325Z 2500/2606 35004KT CAVOK TX26/2514Z TN14/2504Z TN16/2604Z
BECMG 2506/2509 9999 SCT020
BECMG 2508/2511 06007KT 9999 SCT020
PROB40
TEMPO 2515/2520 FEW050TCU
BECMG 2517/2520 VRB02KT
PROB30
TEMPO 2517/2520 16010KT FEW050CB
PROB30
TEMPO 2604/2606 SHRA SCT050TCU
ATIS : +41 43 816 2295 (DEP) +41 43 816 2294 (ARR)



MET'MAP, your aeronautical weather chart ! - Copyright ORBIFLY December 2007 - Disclaimer

ORBIFLY MET'MAP TEAM :

Programming & Development : Alexandra Zaïnal
Original concept : Baudouin d'Aumeries
Technical & hardware support : Manuel Goepfert
Assistance : Marc-Olivier Méhu




SOURCES & CREDITS :

   NOAA